DAL814 KMSP-KPIT
Flight info
| Callsign | DAL814 |
|---|---|
| Flight time | N/A |
| Altitude | 37000 |
| Route | COULT7 DLL J68 BAE J70 PMM TAMDE GRIVY JESEY5 |
| Aircraft | A321/M-SDE3FGHIRWY/LB1 |
Departure
| Time | 2026-05-05 20:31 |
|---|---|
| Airport | Minneapolis–Saint Paul International Airport / Wold–Chamberlain Field (KMSP) |
Arrival
| Time | N/A |
|---|---|
| Airport | Pittsburgh International Airport (KPIT) |
| Time | Latitude | Longitude | Altitude | Speed | Heading |
|---|---|---|---|---|---|
| 2026-05-05 20:07 | 44.88315 | -93.20465 | 825 ft | 0 kts | 225° |
| 2026-05-05 20:23 | 44.88326 | -93.20449 | 825 ft | 4 kts | 220° |
| 2026-05-05 20:24 | 44.88344 | -93.20431 | 822 ft | 2 kts | 211° |
| 2026-05-05 20:24 | 44.88359 | -93.20418 | 824 ft | 0 kts | 211° |
| 2026-05-05 20:28 | 44.88336 | -93.20410 | 824 ft | 9 kts | 132° |
| 2026-05-05 20:28 | 44.88331 | -93.20360 | 825 ft | 21 kts | 90° |
| 2026-05-05 20:28 | 44.88301 | -93.20090 | 823 ft | 28 kts | 117° |
| 2026-05-05 20:29 | 44.88206 | -93.19879 | 824 ft | 24 kts | 121° |
| 2026-05-05 20:29 | 44.88123 | -93.19684 | 825 ft | 22 kts | 122° |
| 2026-05-05 20:29 | 44.88064 | -93.19554 | 825 ft | 14 kts | 122° |
| 2026-05-05 20:29 | 44.88056 | -93.19528 | 823 ft | 0 kts | 107° |
| 2026-05-05 20:30 | 44.88055 | -93.19504 | 825 ft | 6 kts | 88° |
| 2026-05-05 20:30 | 44.88103 | -93.19441 | 824 ft | 14 kts | 21° |
| 2026-05-05 20:30 | 44.88177 | -93.19516 | 824 ft | 17 kts | 301° |
| 2026-05-05 20:30 | 44.88325 | -93.19862 | 824 ft | 75 kts | 301° |
| 2026-05-05 20:31 | 44.88701 | -93.20732 | 823 ft | 130 kts | 301° |
| 2026-05-05 20:31 | 44.89239 | -93.21970 | 1016 ft | 157 kts | 300° |
| 2026-05-05 20:31 | 44.89781 | -93.23242 | 1874 ft | 147 kts | 300° |
| 2026-05-05 20:31 | 44.90291 | -93.24468 | 2668 ft | 142 kts | 298° |
| 2026-05-05 20:32 | 44.90793 | -93.25634 | 3262 ft | 144 kts | 307° |
| 2026-05-05 20:32 | 44.91716 | -93.26428 | 3520 ft | 170 kts | 334° |
| 2026-05-05 20:32 | 44.92928 | -93.26953 | 3698 ft | 193 kts | 339° |
| 2026-05-05 20:32 | 44.94291 | -93.27490 | 3827 ft | 215 kts | 340° |
| 2026-05-05 20:33 | 44.95856 | -93.27764 | 4166 ft | 240 kts | 3° |
| 2026-05-05 20:33 | 44.97517 | -93.27014 | 4700 ft | 261 kts | 18° |
| 2026-05-05 20:33 | 44.99200 | -93.25969 | 5508 ft | 267 kts | 19° |
| 2026-05-05 20:33 | 45.00870 | -93.24760 | 6379 ft | 275 kts | 32° |
| 2026-05-05 20:34 | 45.02166 | -93.22718 | 7191 ft | 288 kts | 59° |
| 2026-05-05 20:34 | 45.02692 | -93.19964 | 8000 ft | 297 kts | 89° |
| 2026-05-05 20:34 | 45.02246 | -93.17126 | 8825 ft | 300 kts | 119° |
| 2026-05-05 20:34 | 45.01137 | -93.14617 | 9674 ft | 302 kts | 126° |
| 2026-05-05 20:35 | 44.99958 | -93.12112 | 10244 ft | 315 kts | 126° |
| 2026-05-05 20:35 | 44.98696 | -93.09448 | 10465 ft | 338 kts | 125° |
| 2026-05-05 20:35 | 44.97356 | -93.06620 | 10941 ft | 351 kts | 125° |
| 2026-05-05 20:35 | 44.95992 | -93.03728 | 11634 ft | 357 kts | 125° |
| 2026-05-05 20:36 | 44.94610 | -93.00783 | 12340 ft | 363 kts | 124° |
| 2026-05-05 20:36 | 44.93207 | -92.97789 | 13039 ft | 368 kts | 124° |
| 2026-05-05 20:36 | 44.91782 | -92.94751 | 13727 ft | 374 kts | 124° |
| 2026-05-05 20:36 | 44.90335 | -92.91668 | 14335 ft | 379 kts | 125° |
| 2026-05-05 20:37 | 44.88876 | -92.88557 | 14967 ft | 383 kts | 125° |
| 2026-05-05 20:37 | 44.87902 | -92.86481 | 15396 ft | 385 kts | 125° |
| 2026-05-05 20:37 | 44.85909 | -92.82247 | 16284 ft | 390 kts | 126° |
| 2026-05-05 20:37 | 44.84402 | -92.79049 | 16939 ft | 393 kts | 126° |
| 2026-05-05 20:38 | 44.82877 | -92.75822 | 17592 ft | 397 kts | 126° |
| 2026-05-05 20:38 | 44.81340 | -92.72577 | 18244 ft | 401 kts | 126° |
| 2026-05-05 20:38 | 44.79783 | -92.69293 | 18743 ft | 406 kts | 127° |
| 2026-05-05 20:38 | 44.78203 | -92.65963 | 19189 ft | 412 kts | 128° |
| 2026-05-05 20:39 | 44.76593 | -92.62577 | 19613 ft | 419 kts | 128° |
| 2026-05-05 20:39 | 44.74958 | -92.59146 | 20036 ft | 425 kts | 129° |
| 2026-05-05 20:39 | 44.73323 | -92.55721 | 20436 ft | 432 kts | 129° |
| 2026-05-05 20:39 | 44.71612 | -92.52138 | 20840 ft | 438 kts | 130° |
| 2026-05-05 20:40 | 44.69900 | -92.48563 | 21253 ft | 444 kts | 130° |
| 2026-05-05 20:40 | 44.68126 | -92.44967 | 21652 ft | 449 kts | 132° |
| 2026-05-05 20:40 | 44.66343 | -92.41465 | 22045 ft | 454 kts | 133° |
| 2026-05-05 20:40 | 44.64430 | -92.37778 | 22456 ft | 459 kts | 134° |
| 2026-05-05 20:41 | 44.62529 | -92.34140 | 22850 ft | 465 kts | 134° |
| 2026-05-05 20:41 | 44.60606 | -92.30460 | 23249 ft | 470 kts | 135° |
| 2026-05-05 20:41 | 44.58668 | -92.26738 | 23617 ft | 475 kts | 135° |
| 2026-05-05 20:41 | 44.56716 | -92.22969 | 23984 ft | 479 kts | 135° |
| 2026-05-05 20:42 | 44.54762 | -92.19173 | 24372 ft | 482 kts | 135° |
| 2026-05-05 20:42 | 44.52808 | -92.15362 | 24759 ft | 484 kts | 135° |